<?xml version="1.0" encoding="UTF-8" standalone="no" ?>
<gpx xmlns="http://www.topografix.com/GPX/1/1" xmlns:xsi="http://www.w3.org/2001/XMLSchema-instance" xsi:schemaLocation="http://www.topografix.com/GPX/1/1 http://www.topografix.com/GPX/1/1/gpx.xsd" version="1.1" creator="VisuGPX - https://www.visugpx.com">
  <metadata>
    <name>Circuit VTT N°6 Vers le Pont de Mars</name>
    <desc><![CDATA[Description

Il est très varié sans grosse réelle difficulté. Les montées assez roulantes et les descentes s?enchaînent facilement au gré des sentiers forestiers.

Types :
43 - Espace VTT FFC du Haut-Lignon
Profil

Type itinéraire : VTTistes
Niveau rouge - Difficile
Nature du terrain :
Cailloux
Terre
Gravillons
]]></desc>
  </metadata>
  <trk>
    <name><![CDATA[Circuit VTT N°6 Vers le Pont de Mars_1]]></name>
    <trkseg>
      <trkpt lat="45.08169" lon="4.27373">
        <ele>989.5</ele>
      </trkpt>
      <trkpt lat="45.08167" lon="4.27449">
        <ele>982.3</ele>
      </trkpt>
      <trkpt lat="45.08157" lon="4.27512">
        <ele>973.6</ele>
      </trkpt>
      <trkpt lat="45.08139" lon="4.27477">
        <ele>979.5</ele>
      </trkpt>
      <trkpt lat="45.08126" lon="4.27464">
        <ele>980.5</ele>
      </trkpt>
      <trkpt lat="45.08113" lon="4.27464">
        <ele>980.5</ele>
      </trkpt>
      <trkpt lat="45.08029" lon="4.27464">
        <ele>980.6</ele>
      </trkpt>
      <trkpt lat="45.07945" lon="4.27451">
        <ele>979.6</ele>
      </trkpt>
      <trkpt lat="45.07858" lon="4.27401">
        <ele>973.6</ele>
      </trkpt>
      <trkpt lat="45.07832" lon="4.27339">
        <ele>970.7</ele>
      </trkpt>
      <trkpt lat="45.0781" lon="4.2731">
        <ele>976.7</ele>
      </trkpt>
      <trkpt lat="45.07764" lon="4.27305">
        <ele>977.2</ele>
      </trkpt>
      <trkpt lat="45.07725" lon="4.27305">
        <ele>979.1</ele>
      </trkpt>
      <trkpt lat="45.07709" lon="4.27309">
        <ele>979.4</ele>
      </trkpt>
      <trkpt lat="45.07703" lon="4.27305">
        <ele>979.8</ele>
      </trkpt>
      <trkpt lat="45.07697" lon="4.27301">
        <ele>980.2</ele>
      </trkpt>
      <trkpt lat="45.07683" lon="4.27301">
        <ele>980.3</ele>
        <time>2020-08-02T08:37:14Z</time>
      </trkpt>
      <trkpt lat="45.07673" lon="4.27308">
        <ele>979.7</ele>
        <time>2020-08-02T08:37:16Z</time>
      </trkpt>
      <trkpt lat="45.07624" lon="4.27328">
        <ele>978.6</ele>
      </trkpt>
      <trkpt lat="45.07511" lon="4.27356">
        <ele>974.8</ele>
      </trkpt>
      <trkpt lat="45.07446" lon="4.27418">
        <ele>969.7</ele>
      </trkpt>
      <trkpt lat="45.0741" lon="4.27471">
        <ele>968.5</ele>
      </trkpt>
      <trkpt lat="45.07384" lon="4.27523">
        <ele>964.5</ele>
        <time>2020-08-02T08:38:38Z</time>
      </trkpt>
      <trkpt lat="45.07393" lon="4.27558">
        <ele>963.7</ele>
        <time>2020-08-02T08:38:44Z</time>
      </trkpt>
      <trkpt lat="45.0738" lon="4.27616">
        <ele>962.3</ele>
        <time>2020-08-02T08:38:54Z</time>
      </trkpt>
      <trkpt lat="45.07326" lon="4.27718">
        <ele>954.4</ele>
        <time>2020-08-02T08:39:15Z</time>
      </trkpt>
      <trkpt lat="45.07264" lon="4.27849">
        <ele>948.1</ele>
        <time>2020-08-02T08:39:41Z</time>
      </trkpt>
      <trkpt lat="45.0719" lon="4.27975">
        <ele>944.1</ele>
        <time>2020-08-02T08:40:08Z</time>
      </trkpt>
      <trkpt lat="45.07169" lon="4.28021">
        <ele>941.5</ele>
        <time>2020-08-02T08:40:17Z</time>
      </trkpt>
      <trkpt lat="45.07155" lon="4.2807">
        <ele>936.9</ele>
        <time>2020-08-02T08:40:26Z</time>
      </trkpt>
      <trkpt lat="45.0714" lon="4.28145">
        <ele>931.5</ele>
        <time>2020-08-02T08:40:39Z</time>
      </trkpt>
      <trkpt lat="45.07146" lon="4.28163">
        <ele>931.8</ele>
        <time>2020-08-02T08:40:42Z</time>
      </trkpt>
      <trkpt lat="45.07194" lon="4.28197">
        <ele>928.7</ele>
        <time>2020-08-02T08:40:55Z</time>
      </trkpt>
      <trkpt lat="45.07213" lon="4.28222">
        <ele>926.9</ele>
        <time>2020-08-02T08:41:01Z</time>
      </trkpt>
      <trkpt lat="45.07231" lon="4.28214">
        <ele>926.7</ele>
        <time>2020-08-02T08:41:05Z</time>
      </trkpt>
      <trkpt lat="45.0725" lon="4.282">
        <ele>927.4</ele>
        <time>2020-08-02T08:41:10Z</time>
      </trkpt>
      <trkpt lat="45.07276" lon="4.28207">
        <ele>919.1</ele>
        <time>2020-08-02T08:41:16Z</time>
      </trkpt>
      <trkpt lat="45.07326" lon="4.28212">
        <ele>915.1</ele>
        <time>2020-08-02T08:41:28Z</time>
      </trkpt>
      <trkpt lat="45.07352" lon="4.28212">
        <ele>905.2</ele>
        <time>2020-08-02T08:41:34Z</time>
      </trkpt>
      <trkpt lat="45.07392" lon="4.28221">
        <ele>902</ele>
        <time>2020-08-02T08:41:44Z</time>
      </trkpt>
      <trkpt lat="45.07423" lon="4.28242">
        <ele>896.4</ele>
        <time>2020-08-02T08:41:52Z</time>
      </trkpt>
      <trkpt lat="45.07472" lon="4.28287">
        <ele>897.4</ele>
        <time>2020-08-02T08:42:05Z</time>
      </trkpt>
      <trkpt lat="45.07474" lon="4.28302">
        <ele>897.8</ele>
        <time>2020-08-02T08:42:08Z</time>
      </trkpt>
      <trkpt lat="45.07469" lon="4.28317">
        <ele>898.1</ele>
        <time>2020-08-02T08:42:11Z</time>
      </trkpt>
      <trkpt lat="45.07469" lon="4.28335">
        <ele>899.6</ele>
        <time>2020-08-02T08:42:14Z</time>
      </trkpt>
      <trkpt lat="45.07476" lon="4.28355">
        <ele>899.8</ele>
        <time>2020-08-02T08:42:17Z</time>
      </trkpt>
      <trkpt lat="45.07478" lon="4.2837">
        <ele>900</ele>
        <time>2020-08-02T08:42:20Z</time>
      </trkpt>
      <trkpt lat="45.07471" lon="4.28388">
        <ele>900.1</ele>
        <time>2020-08-02T08:42:23Z</time>
      </trkpt>
      <trkpt lat="45.07456" lon="4.28413">
        <ele>900</ele>
        <time>2020-08-02T08:42:29Z</time>
      </trkpt>
      <trkpt lat="45.07456" lon="4.28429">
        <ele>900.3</ele>
        <time>2020-08-02T08:42:31Z</time>
      </trkpt>
      <trkpt lat="45.07462" lon="4.28446">
        <ele>900.4</ele>
        <time>2020-08-02T08:42:34Z</time>
      </trkpt>
      <trkpt lat="45.07472" lon="4.28461">
        <ele>900.4</ele>
        <time>2020-08-02T08:42:38Z</time>
      </trkpt>
      <trkpt lat="45.07478" lon="4.28475">
        <ele>900.5</ele>
        <time>2020-08-02T08:42:40Z</time>
      </trkpt>
      <trkpt lat="45.07479" lon="4.28485">
        <ele>900.5</ele>
        <time>2020-08-02T08:42:42Z</time>
      </trkpt>
      <trkpt lat="45.07471" lon="4.28493">
        <ele>900.4</ele>
        <time>2020-08-02T08:42:44Z</time>
      </trkpt>
      <trkpt lat="45.07455" lon="4.28524">
        <ele>900</ele>
        <time>2020-08-02T08:42:51Z</time>
      </trkpt>
      <trkpt lat="45.07491" lon="4.28558">
        <ele>899.8</ele>
        <time>2020-08-02T08:43:01Z</time>
      </trkpt>
      <trkpt lat="45.07514" lon="4.28567">
        <ele>900.9</ele>
        <time>2020-08-02T08:43:06Z</time>
      </trkpt>
      <trkpt lat="45.07558" lon="4.28574">
        <ele>903.1</ele>
        <time>2020-08-02T08:43:17Z</time>
      </trkpt>
      <trkpt lat="45.07572" lon="4.28585">
        <ele>904.7</ele>
        <time>2020-08-02T08:43:20Z</time>
      </trkpt>
      <trkpt lat="45.07576" lon="4.28637">
        <ele>903.8</ele>
        <time>2020-08-02T08:43:29Z</time>
      </trkpt>
      <trkpt lat="45.07572" lon="4.28656">
        <ele>904.4</ele>
        <time>2020-08-02T08:43:32Z</time>
      </trkpt>
      <trkpt lat="45.07588" lon="4.28685">
        <ele>909.8</ele>
        <time>2020-08-02T08:43:38Z</time>
      </trkpt>
      <trkpt lat="45.0758" lon="4.28742">
        <ele>907.3</ele>
        <time>2020-08-02T08:43:48Z</time>
      </trkpt>
      <trkpt lat="45.07584" lon="4.2876">
        <ele>912.4</ele>
        <time>2020-08-02T08:43:51Z</time>
      </trkpt>
      <trkpt lat="45.07601" lon="4.2878">
        <ele>917</ele>
        <time>2020-08-02T08:43:56Z</time>
      </trkpt>
      <trkpt lat="45.0761" lon="4.28823">
        <ele>919.8</ele>
        <time>2020-08-02T08:44:04Z</time>
      </trkpt>
      <trkpt lat="45.07626" lon="4.28822">
        <ele>920.5</ele>
        <time>2020-08-02T08:44:07Z</time>
      </trkpt>
      <trkpt lat="45.0748" lon="4.29053">
        <ele>931.5</ele>
      </trkpt>
      <trkpt lat="45.07454" lon="4.29175">
        <ele>949</ele>
      </trkpt>
      <trkpt lat="45.07406" lon="4.29262">
        <ele>952.1</ele>
      </trkpt>
      <trkpt lat="45.07385" lon="4.29272">
        <ele>953.3</ele>
      </trkpt>
      <trkpt lat="45.0741" lon="4.29342">
        <ele>960.5</ele>
      </trkpt>
      <trkpt lat="45.07325" lon="4.29364">
        <ele>966.4</ele>
      </trkpt>
      <trkpt lat="45.07291" lon="4.2939">
        <ele>967.8</ele>
      </trkpt>
      <trkpt lat="45.07282" lon="4.29445">
        <ele>968.1</ele>
      </trkpt>
      <trkpt lat="45.0717" lon="4.29596">
        <ele>986.6</ele>
      </trkpt>
      <trkpt lat="45.07082" lon="4.2996">
        <ele>1018.2</ele>
      </trkpt>
      <trkpt lat="45.06919" lon="4.30291">
        <ele>1012</ele>
      </trkpt>
      <trkpt lat="45.06761" lon="4.30188">
        <ele>1011.4</ele>
      </trkpt>
      <trkpt lat="45.06613" lon="4.30119">
        <ele>1007.5</ele>
      </trkpt>
      <trkpt lat="45.06458" lon="4.30003">
        <ele>985.9</ele>
      </trkpt>
      <trkpt lat="45.06438" lon="4.30061">
        <ele>981.4</ele>
      </trkpt>
      <trkpt lat="45.06382" lon="4.30079">
        <ele>972.3</ele>
      </trkpt>
      <trkpt lat="45.06335" lon="4.30158">
        <ele>977.3</ele>
      </trkpt>
      <trkpt lat="45.06232" lon="4.30134">
        <ele>972.8</ele>
      </trkpt>
      <trkpt lat="45.06168" lon="4.3017">
        <ele>973.4</ele>
      </trkpt>
      <trkpt lat="45.06135" lon="4.30187">
        <ele>970.2</ele>
      </trkpt>
      <trkpt lat="45.06108" lon="4.3019">
        <ele>969.3</ele>
      </trkpt>
      <trkpt lat="45.06042" lon="4.30241">
        <ele>961.5</ele>
      </trkpt>
      <trkpt lat="45.0603" lon="4.30243">
        <ele>960.7</ele>
      </trkpt>
      <trkpt lat="45.06007" lon="4.3026">
        <ele>957.1</ele>
      </trkpt>
      <trkpt lat="45.06" lon="4.30249">
        <ele>957.2</ele>
      </trkpt>
      <trkpt lat="45.05987" lon="4.30202">
        <ele>953.9</ele>
      </trkpt>
      <trkpt lat="45.05978" lon="4.30179">
        <ele>954.2</ele>
      </trkpt>
      <trkpt lat="45.05942" lon="4.30127">
        <ele>951.4</ele>
      </trkpt>
      <trkpt lat="45.05923" lon="4.30114">
        <ele>950.1</ele>
      </trkpt>
      <trkpt lat="45.05905" lon="4.30114">
        <ele>943.4</ele>
      </trkpt>
      <trkpt lat="45.05869" lon="4.30128">
        <ele>941.7</ele>
      </trkpt>
      <trkpt lat="45.05849" lon="4.30132">
        <ele>940.8</ele>
      </trkpt>
      <trkpt lat="45.05818" lon="4.30117">
        <ele>937.2</ele>
      </trkpt>
      <trkpt lat="45.05747" lon="4.30068">
        <ele>947.2</ele>
      </trkpt>
      <trkpt lat="45.05735" lon="4.30055">
        <ele>951.3</ele>
      </trkpt>
      <trkpt lat="45.05733" lon="4.30041">
        <ele>952.7</ele>
      </trkpt>
      <trkpt lat="45.05728" lon="4.30036">
        <ele>953.5</ele>
      </trkpt>
      <trkpt lat="45.05723" lon="4.30039">
        <ele>954.1</ele>
      </trkpt>
      <trkpt lat="45.05694" lon="4.30137">
        <ele>950.7</ele>
      </trkpt>
      <trkpt lat="45.05668" lon="4.30184">
        <ele>949.9</ele>
      </trkpt>
      <trkpt lat="45.0564" lon="4.3024">
        <ele>957.6</ele>
      </trkpt>
      <trkpt lat="45.05629" lon="4.30259">
        <ele>958.2</ele>
      </trkpt>
      <trkpt lat="45.05619" lon="4.3027">
        <ele>959.7</ele>
      </trkpt>
      <trkpt lat="45.05547" lon="4.3028">
        <ele>974.7</ele>
      </trkpt>
      <trkpt lat="45.05523" lon="4.30292">
        <ele>976.4</ele>
      </trkpt>
      <trkpt lat="45.05514" lon="4.30293">
        <ele>976.9</ele>
      </trkpt>
      <trkpt lat="45.05505" lon="4.30278">
        <ele>978.4</ele>
      </trkpt>
      <trkpt lat="45.05469" lon="4.30275">
        <ele>986.5</ele>
      </trkpt>
      <trkpt lat="45.05425" lon="4.30281">
        <ele>988.7</ele>
      </trkpt>
      <trkpt lat="45.05328" lon="4.30282">
        <ele>997.3</ele>
      </trkpt>
      <trkpt lat="45.05228" lon="4.30281">
        <ele>1005.6</ele>
      </trkpt>
      <trkpt lat="45.05207" lon="4.30286">
        <ele>1007.2</ele>
      </trkpt>
      <trkpt lat="45.0519" lon="4.30286">
        <ele>1008.4</ele>
      </trkpt>
      <trkpt lat="45.05155" lon="4.30269">
        <ele>1016.3</ele>
      </trkpt>
      <trkpt lat="45.05132" lon="4.30252">
        <ele>1017.4</ele>
      </trkpt>
      <trkpt lat="45.05104" lon="4.30242">
        <ele>1020.2</ele>
      </trkpt>
      <trkpt lat="45.05092" lon="4.30222">
        <ele>1020.4</ele>
      </trkpt>
      <trkpt lat="45.05068" lon="4.30207">
        <ele>1025.1</ele>
      </trkpt>
      <trkpt lat="45.05054" lon="4.30191">
        <ele>1025.8</ele>
      </trkpt>
      <trkpt lat="45.04995" lon="4.3009">
        <ele>1033.1</ele>
      </trkpt>
      <trkpt lat="45.04973" lon="4.30078">
        <ele>1032.8</ele>
      </trkpt>
      <trkpt lat="45.04936" lon="4.30051">
        <ele>1032.6</ele>
      </trkpt>
      <trkpt lat="45.04902" lon="4.30035">
        <ele>1032.7</ele>
      </trkpt>
      <trkpt lat="45.04881" lon="4.3002">
        <ele>1032.7</ele>
      </trkpt>
      <trkpt lat="45.04852" lon="4.29992">
        <ele>1031.6</ele>
      </trkpt>
      <trkpt lat="45.0476" lon="4.29884">
        <ele>1034.4</ele>
      </trkpt>
      <trkpt lat="45.0468" lon="4.29809">
        <ele>1035.6</ele>
      </trkpt>
      <trkpt lat="45.04661" lon="4.29798">
        <ele>1035.7</ele>
      </trkpt>
      <trkpt lat="45.04637" lon="4.29789">
        <ele>1035.8</ele>
      </trkpt>
      <trkpt lat="45.04615" lon="4.2979">
        <ele>1035.8</ele>
      </trkpt>
      <trkpt lat="45.04585" lon="4.29795">
        <ele>1035.5</ele>
      </trkpt>
      <trkpt lat="45.04555" lon="4.2979">
        <ele>1036.2</ele>
      </trkpt>
      <trkpt lat="45.04459" lon="4.29764">
        <ele>1039.3</ele>
      </trkpt>
      <trkpt lat="45.04438" lon="4.29761">
        <ele>1040</ele>
      </trkpt>
      <trkpt lat="45.04404" lon="4.29761">
        <ele>1042.1</ele>
      </trkpt>
      <trkpt lat="45.04386" lon="4.29757">
        <ele>1042.4</ele>
      </trkpt>
      <trkpt lat="45.04305" lon="4.29721">
        <ele>1044.6</ele>
      </trkpt>
      <trkpt lat="45.04268" lon="4.29709">
        <ele>1044.4</ele>
      </trkpt>
      <trkpt lat="45.0424" lon="4.29707">
        <ele>1042.1</ele>
      </trkpt>
      <trkpt lat="45.04182" lon="4.29719">
        <ele>1040.5</ele>
      </trkpt>
      <trkpt lat="45.04169" lon="4.29721">
        <ele>1040.2</ele>
      </trkpt>
      <trkpt lat="45.04161" lon="4.29734">
        <ele>1037.1</ele>
      </trkpt>
      <trkpt lat="45.04146" lon="4.29806">
        <ele>1036.1</ele>
      </trkpt>
      <trkpt lat="45.04146" lon="4.29834">
        <ele>1035.7</ele>
      </trkpt>
      <trkpt lat="45.04149" lon="4.29889">
        <ele>1034</ele>
      </trkpt>
      <trkpt lat="45.04149" lon="4.29889">
        <ele>1034</ele>
      </trkpt>
      <trkpt lat="45.04148" lon="4.29966">
        <ele>1030.8</ele>
      </trkpt>
      <trkpt lat="45.0412" lon="4.29979">
        <ele>1029.8</ele>
      </trkpt>
      <trkpt lat="45.04102" lon="4.29996">
        <ele>1028.7</ele>
      </trkpt>
      <trkpt lat="45.04067" lon="4.3004">
        <ele>1024.8</ele>
      </trkpt>
      <trkpt lat="45.04042" lon="4.30078">
        <ele>1024</ele>
      </trkpt>
      <trkpt lat="45.04011" lon="4.30129">
        <ele>1021.1</ele>
      </trkpt>
      <trkpt lat="45.03998" lon="4.3016">
        <ele>1016.8</ele>
      </trkpt>
      <trkpt lat="45.03986" lon="4.3017">
        <ele>1014.8</ele>
      </trkpt>
      <trkpt lat="45.03961" lon="4.30167">
        <ele>1012.8</ele>
      </trkpt>
      <trkpt lat="45.03947" lon="4.3017">
        <ele>1012</ele>
      </trkpt>
      <trkpt lat="45.03921" lon="4.30201">
        <ele>1010.7</ele>
      </trkpt>
      <trkpt lat="45.0391" lon="4.30207">
        <ele>1005.1</ele>
      </trkpt>
      <trkpt lat="45.03902" lon="4.30199">
        <ele>1005.3</ele>
      </trkpt>
      <trkpt lat="45.03852" lon="4.30129">
        <ele>1008.3</ele>
      </trkpt>
      <trkpt lat="45.03836" lon="4.30124">
        <ele>1008.1</ele>
      </trkpt>
      <trkpt lat="45.03824" lon="4.30128">
        <ele>1002.3</ele>
      </trkpt>
      <trkpt lat="45.0379" lon="4.30151">
        <ele>1000.6</ele>
      </trkpt>
      <trkpt lat="45.03776" lon="4.30152">
        <ele>1000</ele>
      </trkpt>
      <trkpt lat="45.03744" lon="4.30135">
        <ele>999.8</ele>
      </trkpt>
      <trkpt lat="45.03722" lon="4.30132">
        <ele>1000.8</ele>
      </trkpt>
      <trkpt lat="45.03679" lon="4.30141">
        <ele>1003.3</ele>
      </trkpt>
      <trkpt lat="45.03653" lon="4.30152">
        <ele>1008.5</ele>
      </trkpt>
      <trkpt lat="45.03596" lon="4.30216">
        <ele>1008.4</ele>
      </trkpt>
      <trkpt lat="45.03517" lon="4.30316">
        <ele>1002.4</ele>
      </trkpt>
      <trkpt lat="45.03502" lon="4.30325">
        <ele>1001.1</ele>
      </trkpt>
      <trkpt lat="45.03453" lon="4.30375">
        <ele>996.8</ele>
      </trkpt>
      <trkpt lat="45.03425" lon="4.30394">
        <ele>995.8</ele>
      </trkpt>
      <trkpt lat="45.03403" lon="4.30389">
        <ele>994.1</ele>
      </trkpt>
      <trkpt lat="45.0339" lon="4.30375">
        <ele>994.3</ele>
      </trkpt>
      <trkpt lat="45.03362" lon="4.30372">
        <ele>994.4</ele>
      </trkpt>
      <trkpt lat="45.03352" lon="4.30378">
        <ele>994</ele>
      </trkpt>
      <trkpt lat="45.03335" lon="4.30408">
        <ele>990.7</ele>
      </trkpt>
      <trkpt lat="45.03321" lon="4.30506">
        <ele>984.4</ele>
      </trkpt>
      <trkpt lat="45.03324" lon="4.30536">
        <ele>983.5</ele>
      </trkpt>
      <trkpt lat="45.03322" lon="4.30594">
        <ele>981.3</ele>
      </trkpt>
      <trkpt lat="45.03319" lon="4.30608">
        <ele>981.3</ele>
      </trkpt>
      <trkpt lat="45.03307" lon="4.30613">
        <ele>981.5</ele>
      </trkpt>
      <trkpt lat="45.033" lon="4.30601">
        <ele>981.6</ele>
      </trkpt>
      <trkpt lat="45.03294" lon="4.30583">
        <ele>982.9</ele>
      </trkpt>
      <trkpt lat="45.03286" lon="4.30579">
        <ele>983</ele>
      </trkpt>
      <trkpt lat="45.03274" lon="4.3059">
        <ele>982.2</ele>
      </trkpt>
      <trkpt lat="45.0323" lon="4.30688">
        <ele>988.9</ele>
      </trkpt>
      <trkpt lat="45.0323" lon="4.30704">
        <ele>989.9</ele>
      </trkpt>
      <trkpt lat="45.03248" lon="4.30756">
        <ele>993.8</ele>
      </trkpt>
      <trkpt lat="45.03244" lon="4.30775">
        <ele>995.4</ele>
      </trkpt>
      <trkpt lat="45.03212" lon="4.30813">
        <ele>996.9</ele>
      </trkpt>
      <trkpt lat="45.03127" lon="4.30897">
        <ele>990.1</ele>
      </trkpt>
      <trkpt lat="45.03112" lon="4.30906">
        <ele>988.5</ele>
      </trkpt>
      <trkpt lat="45.03087" lon="4.30903">
        <ele>986</ele>
      </trkpt>
      <trkpt lat="45.03058" lon="4.30892">
        <ele>985.6</ele>
      </trkpt>
      <trkpt lat="45.03041" lon="4.30885">
        <ele>986</ele>
      </trkpt>
      <trkpt lat="45.02956" lon="4.30848">
        <ele>986.1</ele>
      </trkpt>
      <trkpt lat="45.02899" lon="4.30832">
        <ele>993.7</ele>
      </trkpt>
      <trkpt lat="45.0288" lon="4.30826">
        <ele>993.9</ele>
      </trkpt>
      <trkpt lat="45.02859" lon="4.30807">
        <ele>994</ele>
      </trkpt>
      <trkpt lat="45.02825" lon="4.30794">
        <ele>991.2</ele>
      </trkpt>
      <trkpt lat="45.02808" lon="4.30796">
        <ele>990.9</ele>
      </trkpt>
      <trkpt lat="45.02716" lon="4.30828">
        <ele>984.5</ele>
      </trkpt>
      <trkpt lat="45.02702" lon="4.30838">
        <ele>976.2</ele>
      </trkpt>
      <trkpt lat="45.02682" lon="4.30833">
        <ele>981.9</ele>
      </trkpt>
      <trkpt lat="45.02656" lon="4.30816">
        <ele>979.6</ele>
      </trkpt>
      <trkpt lat="45.02639" lon="4.30794">
        <ele>980.7</ele>
      </trkpt>
      <trkpt lat="45.02585" lon="4.30774">
        <ele>979.1</ele>
      </trkpt>
      <trkpt lat="45.02579" lon="4.30777">
        <ele>975.7</ele>
      </trkpt>
      <trkpt lat="45.02544" lon="4.30902">
        <ele>972.4</ele>
      </trkpt>
      <trkpt lat="45.02458" lon="4.31204">
        <ele>982.8</ele>
      </trkpt>
      <trkpt lat="45.02463" lon="4.31215">
        <ele>984</ele>
      </trkpt>
      <trkpt lat="45.02486" lon="4.31235">
        <ele>987.8</ele>
      </trkpt>
      <trkpt lat="45.02522" lon="4.31243">
        <ele>989.2</ele>
      </trkpt>
      <trkpt lat="45.02554" lon="4.31243">
        <ele>989.7</ele>
      </trkpt>
      <trkpt lat="45.02579" lon="4.31248">
        <ele>996.5</ele>
      </trkpt>
      <trkpt lat="45.02628" lon="4.31232">
        <ele>993.2</ele>
      </trkpt>
      <trkpt lat="45.02667" lon="4.31224">
        <ele>999.8</ele>
      </trkpt>
      <trkpt lat="45.02707" lon="4.312">
        <ele>996.1</ele>
      </trkpt>
      <trkpt lat="45.0275" lon="4.31186">
        <ele>999</ele>
      </trkpt>
      <trkpt lat="45.02821" lon="4.31159">
        <ele>994.2</ele>
      </trkpt>
      <trkpt lat="45.02875" lon="4.31144">
        <ele>993.2</ele>
      </trkpt>
      <trkpt lat="45.02912" lon="4.31136">
        <ele>993.1</ele>
      </trkpt>
      <trkpt lat="45.02945" lon="4.31134">
        <ele>987.8</ele>
      </trkpt>
      <trkpt lat="45.02972" lon="4.31139">
        <ele>986.1</ele>
      </trkpt>
      <trkpt lat="45.03014" lon="4.31165">
        <ele>981.6</ele>
      </trkpt>
      <trkpt lat="45.0302" lon="4.3118">
        <ele>985.9</ele>
      </trkpt>
      <trkpt lat="45.03027" lon="4.31257">
        <ele>994.6</ele>
      </trkpt>
      <trkpt lat="45.03041" lon="4.31292">
        <ele>994.1</ele>
      </trkpt>
      <trkpt lat="45.03056" lon="4.31319">
        <ele>993.6</ele>
      </trkpt>
      <trkpt lat="45.03068" lon="4.31327">
        <ele>992.6</ele>
      </trkpt>
      <trkpt lat="45.0308" lon="4.31323">
        <ele>991.9</ele>
      </trkpt>
      <trkpt lat="45.03108" lon="4.31304">
        <ele>989.3</ele>
      </trkpt>
      <trkpt lat="45.03129" lon="4.31297">
        <ele>989.4</ele>
      </trkpt>
      <trkpt lat="45.03148" lon="4.31296">
        <ele>989.7</ele>
      </trkpt>
      <trkpt lat="45.0321" lon="4.31331">
        <ele>997.1</ele>
      </trkpt>
      <trkpt lat="45.0324" lon="4.31346">
        <ele>1005.4</ele>
      </trkpt>
      <trkpt lat="45.03296" lon="4.31364">
        <ele>1012.7</ele>
      </trkpt>
      <trkpt lat="45.03332" lon="4.31365">
        <ele>1014</ele>
      </trkpt>
      <trkpt lat="45.034" lon="4.31359">
        <ele>1021.1</ele>
      </trkpt>
      <trkpt lat="45.03532" lon="4.31361">
        <ele>1034.1</ele>
      </trkpt>
      <trkpt lat="45.03553" lon="4.31366">
        <ele>1035.2</ele>
      </trkpt>
      <trkpt lat="45.03588" lon="4.31389">
        <ele>1041.1</ele>
      </trkpt>
      <trkpt lat="45.03602" lon="4.31391">
        <ele>1041.2</ele>
      </trkpt>
      <trkpt lat="45.03615" lon="4.31386">
        <ele>1040.6</ele>
      </trkpt>
      <trkpt lat="45.03649" lon="4.31363">
        <ele>1038.7</ele>
      </trkpt>
      <trkpt lat="45.03676" lon="4.31358">
        <ele>1041.5</ele>
      </trkpt>
      <trkpt lat="45.03656" lon="4.31401">
        <ele>1044.5</ele>
      </trkpt>
      <trkpt lat="45.0363" lon="4.31442">
        <ele>1051.8</ele>
      </trkpt>
      <trkpt lat="45.03614" lon="4.31465">
        <ele>1052.6</ele>
      </trkpt>
      <trkpt lat="45.03611" lon="4.31478">
        <ele>1053.2</ele>
      </trkpt>
      <trkpt lat="45.03629" lon="4.31513">
        <ele>1058.3</ele>
      </trkpt>
      <trkpt lat="45.03681" lon="4.3158">
        <ele>1063.6</ele>
      </trkpt>
      <trkpt lat="45.03691" lon="4.31614">
        <ele>1064.5</ele>
      </trkpt>
      <trkpt lat="45.03681" lon="4.3163">
        <ele>1064.1</ele>
      </trkpt>
      <trkpt lat="45.03665" lon="4.31679">
        <ele>1060.4</ele>
      </trkpt>
      <trkpt lat="45.03663" lon="4.31718">
        <ele>1058.5</ele>
      </trkpt>
      <trkpt lat="45.03663" lon="4.31735">
        <ele>1058.5</ele>
      </trkpt>
      <trkpt lat="45.03675" lon="4.31755">
        <ele>1057.6</ele>
      </trkpt>
      <trkpt lat="45.03706" lon="4.31779">
        <ele>1055.5</ele>
      </trkpt>
      <trkpt lat="45.03746" lon="4.31807">
        <ele>1054.7</ele>
      </trkpt>
      <trkpt lat="45.03763" lon="4.31826">
        <ele>1056.3</ele>
      </trkpt>
      <trkpt lat="45.03793" lon="4.31862">
        <ele>1057.1</ele>
      </trkpt>
      <trkpt lat="45.03818" lon="4.31895">
        <ele>1057.8</ele>
      </trkpt>
      <trkpt lat="45.0386" lon="4.31938">
        <ele>1060.6</ele>
      </trkpt>
      <trkpt lat="45.03874" lon="4.31953">
        <ele>1060.9</ele>
      </trkpt>
      <trkpt lat="45.03884" lon="4.31985">
        <ele>1060.6</ele>
      </trkpt>
      <trkpt lat="45.0389" lon="4.3202">
        <ele>1058.1</ele>
      </trkpt>
      <trkpt lat="45.03886" lon="4.32087">
        <ele>1055.7</ele>
      </trkpt>
      <trkpt lat="45.03879" lon="4.32121">
        <ele>1054.7</ele>
      </trkpt>
      <trkpt lat="45.03831" lon="4.32215">
        <ele>1051.9</ele>
      </trkpt>
      <trkpt lat="45.03821" lon="4.32222">
        <ele>1051.9</ele>
      </trkpt>
      <trkpt lat="45.03804" lon="4.32227">
        <ele>1051.7</ele>
      </trkpt>
      <trkpt lat="45.03772" lon="4.32239">
        <ele>1051</ele>
      </trkpt>
      <trkpt lat="45.0377" lon="4.32246">
        <ele>1050.9</ele>
      </trkpt>
      <trkpt lat="45.03777" lon="4.32259">
        <ele>1049.3</ele>
      </trkpt>
      <trkpt lat="45.03792" lon="4.32298">
        <ele>1048.3</ele>
      </trkpt>
      <trkpt lat="45.03795" lon="4.32315">
        <ele>1047.8</ele>
      </trkpt>
      <trkpt lat="45.038" lon="4.32339">
        <ele>1043.8</ele>
      </trkpt>
      <trkpt lat="45.03825" lon="4.3236">
        <ele>1043.5</ele>
      </trkpt>
      <trkpt lat="45.03832" lon="4.32379">
        <ele>1042</ele>
      </trkpt>
      <trkpt lat="45.03873" lon="4.32518">
        <ele>1035.6</ele>
      </trkpt>
      <trkpt lat="45.03874" lon="4.32541">
        <ele>1034.7</ele>
      </trkpt>
      <trkpt lat="45.03872" lon="4.32568">
        <ele>1033.2</ele>
      </trkpt>
      <trkpt lat="45.03873" lon="4.32611">
        <ele>1027.6</ele>
      </trkpt>
      <trkpt lat="45.03863" lon="4.32629">
        <ele>1026.4</ele>
      </trkpt>
      <trkpt lat="45.03804" lon="4.328">
        <ele>1013.7</ele>
      </trkpt>
      <trkpt lat="45.03792" lon="4.32857">
        <ele>1009.2</ele>
      </trkpt>
      <trkpt lat="45.03779" lon="4.32886">
        <ele>1008.2</ele>
      </trkpt>
      <trkpt lat="45.03754" lon="4.32994">
        <ele>1005.5</ele>
      </trkpt>
      <trkpt lat="45.03757" lon="4.33008">
        <ele>1007.1</ele>
      </trkpt>
      <trkpt lat="45.03769" lon="4.33016">
        <ele>1008.8</ele>
      </trkpt>
      <trkpt lat="45.03787" lon="4.33023">
        <ele>1010.1</ele>
      </trkpt>
      <trkpt lat="45.03815" lon="4.33041">
        <ele>1011.5</ele>
      </trkpt>
      <trkpt lat="45.03851" lon="4.33093">
        <ele>1018</ele>
      </trkpt>
      <trkpt lat="45.039" lon="4.33146">
        <ele>1020.7</ele>
      </trkpt>
      <trkpt lat="45.03896" lon="4.33185">
        <ele>1019.8</ele>
      </trkpt>
      <trkpt lat="45.03883" lon="4.33227">
        <ele>1018.4</ele>
      </trkpt>
      <trkpt lat="45.03843" lon="4.33291">
        <ele>1014.2</ele>
      </trkpt>
      <trkpt lat="45.03778" lon="4.33348">
        <ele>1006.6</ele>
      </trkpt>
      <trkpt lat="45.03741" lon="4.33389">
        <ele>1001.4</ele>
      </trkpt>
      <trkpt lat="45.03722" lon="4.33413">
        <ele>1000.4</ele>
      </trkpt>
      <trkpt lat="45.03704" lon="4.33425">
        <ele>996.2</ele>
      </trkpt>
      <trkpt lat="45.03682" lon="4.33433">
        <ele>995.7</ele>
      </trkpt>
      <trkpt lat="45.03662" lon="4.33438">
        <ele>993.8</ele>
      </trkpt>
      <trkpt lat="45.03629" lon="4.33475">
        <ele>991.7</ele>
      </trkpt>
      <trkpt lat="45.03629" lon="4.33482">
        <ele>991.5</ele>
      </trkpt>
      <trkpt lat="45.03647" lon="4.3349">
        <ele>991.5</ele>
      </trkpt>
      <trkpt lat="45.03658" lon="4.33508">
        <ele>989.3</ele>
      </trkpt>
      <trkpt lat="45.03663" lon="4.33532">
        <ele>987.6</ele>
      </trkpt>
      <trkpt lat="45.03668" lon="4.3357">
        <ele>987.1</ele>
      </trkpt>
      <trkpt lat="45.03685" lon="4.33625">
        <ele>986.4</ele>
      </trkpt>
      <trkpt lat="45.0371" lon="4.33692">
        <ele>986.1</ele>
      </trkpt>
      <trkpt lat="45.03732" lon="4.33758">
        <ele>984</ele>
      </trkpt>
      <trkpt lat="45.03744" lon="4.33776">
        <ele>983.5</ele>
      </trkpt>
      <trkpt lat="45.03762" lon="4.33789">
        <ele>980.1</ele>
      </trkpt>
      <trkpt lat="45.03788" lon="4.33795">
        <ele>979.2</ele>
      </trkpt>
      <trkpt lat="45.03807" lon="4.3379">
        <ele>979</ele>
      </trkpt>
      <trkpt lat="45.03866" lon="4.33757">
        <ele>976.6</ele>
      </trkpt>
      <trkpt lat="45.03896" lon="4.33735">
        <ele>980.8</ele>
      </trkpt>
      <trkpt lat="45.03945" lon="4.33696">
        <ele>978</ele>
      </trkpt>
      <trkpt lat="45.04006" lon="4.33662">
        <ele>973</ele>
      </trkpt>
      <trkpt lat="45.04029" lon="4.33657">
        <ele>972.6</ele>
      </trkpt>
      <trkpt lat="45.04051" lon="4.33662">
        <ele>971.6</ele>
      </trkpt>
      <trkpt lat="45.04082" lon="4.33636">
        <ele>971.5</ele>
      </trkpt>
      <trkpt lat="45.04126" lon="4.33608">
        <ele>971.2</ele>
      </trkpt>
      <trkpt lat="45.04194" lon="4.33579">
        <ele>974.9</ele>
      </trkpt>
      <trkpt lat="45.04206" lon="4.33567">
        <ele>975.3</ele>
      </trkpt>
      <trkpt lat="45.04234" lon="4.3355">
        <ele>975.5</ele>
      </trkpt>
      <trkpt lat="45.043" lon="4.33529">
        <ele>973.5</ele>
      </trkpt>
      <trkpt lat="45.04439" lon="4.33417">
        <ele>978.2</ele>
      </trkpt>
      <trkpt lat="45.04492" lon="4.33411">
        <ele>981.6</ele>
      </trkpt>
      <trkpt lat="45.04513" lon="4.33417">
        <ele>974.2</ele>
      </trkpt>
      <trkpt lat="45.04522" lon="4.33425">
        <ele>972.2</ele>
      </trkpt>
      <trkpt lat="45.04521" lon="4.33412">
        <ele>978.1</ele>
      </trkpt>
      <trkpt lat="45.04523" lon="4.33398">
        <ele>978.6</ele>
      </trkpt>
      <trkpt lat="45.04552" lon="4.33351">
        <ele>979.6</ele>
      </trkpt>
      <trkpt lat="45.04569" lon="4.33313">
        <ele>983.8</ele>
      </trkpt>
      <trkpt lat="45.04569" lon="4.33264">
        <ele>984.9</ele>
      </trkpt>
      <trkpt lat="45.04577" lon="4.33227">
        <ele>986.8</ele>
      </trkpt>
      <trkpt lat="45.04589" lon="4.3313">
        <ele>974.6</ele>
      </trkpt>
      <trkpt lat="45.04599" lon="4.33046">
        <ele>975.5</ele>
      </trkpt>
      <trkpt lat="45.04605" lon="4.33031">
        <ele>975.5</ele>
      </trkpt>
      <trkpt lat="45.04611" lon="4.33015">
        <ele>975.7</ele>
      </trkpt>
      <trkpt lat="45.04622" lon="4.33006">
        <ele>975.1</ele>
      </trkpt>
      <trkpt lat="45.04638" lon="4.32996">
        <ele>978.7</ele>
      </trkpt>
      <trkpt lat="45.04655" lon="4.32971">
        <ele>979.3</ele>
      </trkpt>
      <trkpt lat="45.04675" lon="4.32956">
        <ele>974.9</ele>
      </trkpt>
      <trkpt lat="45.04693" lon="4.32935">
        <ele>975.5</ele>
      </trkpt>
      <trkpt lat="45.04704" lon="4.32917">
        <ele>974.8</ele>
      </trkpt>
      <trkpt lat="45.04736" lon="4.32836">
        <ele>979</ele>
      </trkpt>
      <trkpt lat="45.04764" lon="4.32787">
        <ele>983.8</ele>
      </trkpt>
      <trkpt lat="45.04796" lon="4.32705">
        <ele>990.3</ele>
      </trkpt>
      <trkpt lat="45.04833" lon="4.32584">
        <ele>989.1</ele>
      </trkpt>
      <trkpt lat="45.04864" lon="4.32487">
        <ele>982.3</ele>
      </trkpt>
      <trkpt lat="45.04889" lon="4.32433">
        <ele>980.9</ele>
      </trkpt>
      <trkpt lat="45.04901" lon="4.3241">
        <ele>979.9</ele>
      </trkpt>
      <trkpt lat="45.04908" lon="4.32363">
        <ele>980.8</ele>
      </trkpt>
      <trkpt lat="45.04912" lon="4.32224">
        <ele>977.1</ele>
      </trkpt>
      <trkpt lat="45.04916" lon="4.32174">
        <ele>970.6</ele>
      </trkpt>
      <trkpt lat="45.04925" lon="4.3212">
        <ele>956.4</ele>
      </trkpt>
      <trkpt lat="45.04915" lon="4.3205">
        <ele>965.3</ele>
      </trkpt>
      <trkpt lat="45.04892" lon="4.31982">
        <ele>959.6</ele>
      </trkpt>
      <trkpt lat="45.04871" lon="4.3192">
        <ele>961.1</ele>
      </trkpt>
      <trkpt lat="45.04858" lon="4.31904">
        <ele>958.3</ele>
      </trkpt>
      <trkpt lat="45.04807" lon="4.3183">
        <ele>963.6</ele>
      </trkpt>
      <trkpt lat="45.04788" lon="4.31801">
        <ele>965.8</ele>
      </trkpt>
      <trkpt lat="45.04763" lon="4.31731">
        <ele>962.6</ele>
      </trkpt>
      <trkpt lat="45.04739" lon="4.31644">
        <ele>965.6</ele>
      </trkpt>
      <trkpt lat="45.04726" lon="4.31612">
        <ele>965</ele>
      </trkpt>
      <trkpt lat="45.0471" lon="4.31589">
        <ele>965.8</ele>
      </trkpt>
      <trkpt lat="45.04689" lon="4.31565">
        <ele>964.5</ele>
      </trkpt>
      <trkpt lat="45.04669" lon="4.31553">
        <ele>965.2</ele>
      </trkpt>
      <trkpt lat="45.04654" lon="4.31519">
        <ele>975</ele>
      </trkpt>
      <trkpt lat="45.04656" lon="4.31445">
        <ele>976.6</ele>
      </trkpt>
      <trkpt lat="45.04663" lon="4.3134">
        <ele>975.2</ele>
      </trkpt>
      <trkpt lat="45.04672" lon="4.31197">
        <ele>970.6</ele>
      </trkpt>
      <trkpt lat="45.04662" lon="4.3118">
        <ele>971.8</ele>
      </trkpt>
      <trkpt lat="45.04633" lon="4.31173">
        <ele>972.5</ele>
      </trkpt>
      <trkpt lat="45.04616" lon="4.31159">
        <ele>964.5</ele>
      </trkpt>
      <trkpt lat="45.04592" lon="4.31131">
        <ele>962.4</ele>
      </trkpt>
      <trkpt lat="45.04575" lon="4.31112">
        <ele>958.4</ele>
      </trkpt>
      <trkpt lat="45.04553" lon="4.31104">
        <ele>958</ele>
      </trkpt>
      <trkpt lat="45.04531" lon="4.311">
        <ele>957.3</ele>
      </trkpt>
      <trkpt lat="45.04487" lon="4.31125">
        <ele>959.3</ele>
      </trkpt>
      <trkpt lat="45.04481" lon="4.31123">
        <ele>959.1</ele>
      </trkpt>
      <trkpt lat="45.04422" lon="4.31067">
        <ele>954.5</ele>
      </trkpt>
      <trkpt lat="45.04386" lon="4.31025">
        <ele>960.2</ele>
      </trkpt>
      <trkpt lat="45.04372" lon="4.31017">
        <ele>960.9</ele>
      </trkpt>
      <trkpt lat="45.04348" lon="4.31021">
        <ele>962.1</ele>
      </trkpt>
      <trkpt lat="45.0433" lon="4.3101">
        <ele>965.5</ele>
      </trkpt>
      <trkpt lat="45.04277" lon="4.30984">
        <ele>972.4</ele>
      </trkpt>
      <trkpt lat="45.04254" lon="4.30956">
        <ele>974.6</ele>
      </trkpt>
      <trkpt lat="45.04217" lon="4.30855">
        <ele>985.1</ele>
      </trkpt>
      <trkpt lat="45.04204" lon="4.30811">
        <ele>989.6</ele>
      </trkpt>
      <trkpt lat="45.04197" lon="4.30776">
        <ele>990.1</ele>
      </trkpt>
      <trkpt lat="45.04194" lon="4.30749">
        <ele>992.4</ele>
      </trkpt>
      <trkpt lat="45.04193" lon="4.30713">
        <ele>993.5</ele>
      </trkpt>
      <trkpt lat="45.04196" lon="4.30687">
        <ele>994.1</ele>
      </trkpt>
      <trkpt lat="45.04203" lon="4.30648">
        <ele>997.9</ele>
      </trkpt>
      <trkpt lat="45.04213" lon="4.30514">
        <ele>1002.5</ele>
      </trkpt>
      <trkpt lat="45.04212" lon="4.30483">
        <ele>1003.9</ele>
      </trkpt>
      <trkpt lat="45.04205" lon="4.30432">
        <ele>1004.6</ele>
      </trkpt>
      <trkpt lat="45.04197" lon="4.30395">
        <ele>1007.3</ele>
      </trkpt>
      <trkpt lat="45.04193" lon="4.30333">
        <ele>1010.8</ele>
      </trkpt>
      <trkpt lat="45.04194" lon="4.3026">
        <ele>1011.4</ele>
      </trkpt>
      <trkpt lat="45.04187" lon="4.30193">
        <ele>1015.7</ele>
      </trkpt>
      <trkpt lat="45.0418" lon="4.30143">
        <ele>1021.3</ele>
      </trkpt>
      <trkpt lat="45.04167" lon="4.30098">
        <ele>1024.8</ele>
      </trkpt>
      <trkpt lat="45.04158" lon="4.30059">
        <ele>1027.4</ele>
      </trkpt>
      <trkpt lat="45.04157" lon="4.3003">
        <ele>1028.5</ele>
      </trkpt>
      <trkpt lat="45.04169" lon="4.29991">
        <ele>1032.7</ele>
      </trkpt>
      <trkpt lat="45.04186" lon="4.29979">
        <ele>1034.8</ele>
      </trkpt>
      <trkpt lat="45.04191" lon="4.2998">
        <ele>1035.1</ele>
      </trkpt>
      <trkpt lat="45.04197" lon="4.29996">
        <ele>1035.1</ele>
      </trkpt>
      <trkpt lat="45.04215" lon="4.3">
        <ele>1036.4</ele>
      </trkpt>
      <trkpt lat="45.04245" lon="4.2999">
        <ele>1038.1</ele>
      </trkpt>
      <trkpt lat="45.0426" lon="4.30016">
        <ele>1038.1</ele>
      </trkpt>
      <trkpt lat="45.04264" lon="4.30035">
        <ele>1037.3</ele>
      </trkpt>
      <trkpt lat="45.04269" lon="4.30119">
        <ele>1031.3</ele>
      </trkpt>
      <trkpt lat="45.04277" lon="4.30142">
        <ele>1030.4</ele>
      </trkpt>
      <trkpt lat="45.04307" lon="4.30195">
        <ele>1024.9</ele>
      </trkpt>
      <trkpt lat="45.04329" lon="4.30237">
        <ele>1021.3</ele>
      </trkpt>
      <trkpt lat="45.04343" lon="4.30267">
        <ele>1018.2</ele>
      </trkpt>
      <trkpt lat="45.04355" lon="4.30278">
        <ele>1017.5</ele>
      </trkpt>
      <trkpt lat="45.04401" lon="4.30297">
        <ele>1017.1</ele>
      </trkpt>
      <trkpt lat="45.04427" lon="4.303">
        <ele>1017.4</ele>
      </trkpt>
      <trkpt lat="45.04448" lon="4.30297">
        <ele>1017.5</ele>
      </trkpt>
      <trkpt lat="45.04459" lon="4.30299">
        <ele>1017.5</ele>
      </trkpt>
      <trkpt lat="45.04472" lon="4.30308">
        <ele>1017.5</ele>
      </trkpt>
      <trkpt lat="45.04494" lon="4.30342">
        <ele>1017.1</ele>
      </trkpt>
      <trkpt lat="45.04506" lon="4.30354">
        <ele>1017.7</ele>
      </trkpt>
      <trkpt lat="45.04572" lon="4.30367">
        <ele>1018.6</ele>
      </trkpt>
      <trkpt lat="45.04591" lon="4.30367">
        <ele>1021.5</ele>
      </trkpt>
      <trkpt lat="45.04611" lon="4.30367">
        <ele>1021.9</ele>
      </trkpt>
      <trkpt lat="45.0463" lon="4.30372">
        <ele>1022.1</ele>
      </trkpt>
      <trkpt lat="45.04689" lon="4.30381">
        <ele>1026.9</ele>
      </trkpt>
      <trkpt lat="45.04708" lon="4.30392">
        <ele>1027.1</ele>
      </trkpt>
      <trkpt lat="45.04736" lon="4.3042">
        <ele>1023.3</ele>
      </trkpt>
      <trkpt lat="45.04753" lon="4.3042">
        <ele>1026.9</ele>
      </trkpt>
      <trkpt lat="45.04788" lon="4.30414">
        <ele>1031.2</ele>
      </trkpt>
      <trkpt lat="45.048" lon="4.30407">
        <ele>1031.7</ele>
      </trkpt>
      <trkpt lat="45.04808" lon="4.30393">
        <ele>1032.2</ele>
      </trkpt>
      <trkpt lat="45.04817" lon="4.30322">
        <ele>1037.2</ele>
      </trkpt>
      <trkpt lat="45.04827" lon="4.30323">
        <ele>1036.9</ele>
      </trkpt>
      <trkpt lat="45.04853" lon="4.30372">
        <ele>1031.9</ele>
      </trkpt>
      <trkpt lat="45.0487" lon="4.30402">
        <ele>1030.9</ele>
      </trkpt>
      <trkpt lat="45.04879" lon="4.30431">
        <ele>1028.4</ele>
      </trkpt>
      <trkpt lat="45.04896" lon="4.3048">
        <ele>1027.3</ele>
      </trkpt>
      <trkpt lat="45.04915" lon="4.30506">
        <ele>1025.5</ele>
      </trkpt>
      <trkpt lat="45.04919" lon="4.30525">
        <ele>1023.3</ele>
      </trkpt>
      <trkpt lat="45.04919" lon="4.30563">
        <ele>1021.6</ele>
      </trkpt>
      <trkpt lat="45.04921" lon="4.30588">
        <ele>1020.2</ele>
      </trkpt>
      <trkpt lat="45.04935" lon="4.3065">
        <ele>1015.5</ele>
      </trkpt>
      <trkpt lat="45.04939" lon="4.30679">
        <ele>1011.8</ele>
      </trkpt>
      <trkpt lat="45.04939" lon="4.3075">
        <ele>1002.4</ele>
      </trkpt>
      <trkpt lat="45.04941" lon="4.30768">
        <ele>1002</ele>
      </trkpt>
      <trkpt lat="45.04951" lon="4.3079">
        <ele>1001.4</ele>
      </trkpt>
      <trkpt lat="45.04982" lon="4.3082">
        <ele>1002.6</ele>
      </trkpt>
      <trkpt lat="45.0502" lon="4.30856">
        <ele>1001.3</ele>
      </trkpt>
      <trkpt lat="45.0503" lon="4.30881">
        <ele>1000</ele>
      </trkpt>
      <trkpt lat="45.05036" lon="4.30927">
        <ele>993.8</ele>
      </trkpt>
      <trkpt lat="45.05053" lon="4.31083">
        <ele>988.4</ele>
      </trkpt>
      <trkpt lat="45.05065" lon="4.31154">
        <ele>990</ele>
      </trkpt>
      <trkpt lat="45.05065" lon="4.31187">
        <ele>989.2</ele>
      </trkpt>
      <trkpt lat="45.05072" lon="4.31213">
        <ele>988.3</ele>
      </trkpt>
      <trkpt lat="45.05097" lon="4.31254">
        <ele>987.7</ele>
      </trkpt>
      <trkpt lat="45.05108" lon="4.31264">
        <ele>986.4</ele>
      </trkpt>
      <trkpt lat="45.05122" lon="4.31304">
        <ele>985.2</ele>
        <time>2013-08-08T09:43:20Z</time>
      </trkpt>
      <trkpt lat="45.05177" lon="4.31276">
        <ele>981.1</ele>
      </trkpt>
      <trkpt lat="45.05189" lon="4.31254">
        <ele>980.5</ele>
      </trkpt>
      <trkpt lat="45.05206" lon="4.3123">
        <ele>978.7</ele>
      </trkpt>
      <trkpt lat="45.05224" lon="4.31171">
        <ele>978.1</ele>
      </trkpt>
      <trkpt lat="45.05237" lon="4.31085">
        <ele>981.8</ele>
      </trkpt>
      <trkpt lat="45.05249" lon="4.31066">
        <ele>984.9</ele>
      </trkpt>
      <trkpt lat="45.05267" lon="4.31072">
        <ele>984.9</ele>
      </trkpt>
      <trkpt lat="45.053" lon="4.31107">
        <ele>978</ele>
      </trkpt>
      <trkpt lat="45.05327" lon="4.31114">
        <ele>977.6</ele>
      </trkpt>
      <trkpt lat="45.05344" lon="4.31112">
        <ele>972.3</ele>
        <time>2013-08-08T09:43:20Z</time>
      </trkpt>
      <trkpt lat="45.05375" lon="4.31094">
        <ele>970.1</ele>
      </trkpt>
      <trkpt lat="45.05398" lon="4.31066">
        <ele>974.5</ele>
        <time>2013-08-08T09:43:20Z</time>
      </trkpt>
      <trkpt lat="45.05445" lon="4.30991">
        <ele>972.8</ele>
      </trkpt>
      <trkpt lat="45.05472" lon="4.3093">
        <ele>970.7</ele>
      </trkpt>
      <trkpt lat="45.0553" lon="4.30837">
        <ele>962.2</ele>
      </trkpt>
      <trkpt lat="45.05587" lon="4.3075">
        <ele>960.2</ele>
      </trkpt>
      <trkpt lat="45.05613" lon="4.3069">
        <ele>961.2</ele>
      </trkpt>
      <trkpt lat="45.05629" lon="4.30666">
        <ele>964.5</ele>
      </trkpt>
      <trkpt lat="45.05666" lon="4.3064">
        <ele>962.5</ele>
      </trkpt>
      <trkpt lat="45.05699" lon="4.30598">
        <ele>954.6</ele>
      </trkpt>
      <trkpt lat="45.0571" lon="4.30573">
        <ele>955</ele>
      </trkpt>
      <trkpt lat="45.05712" lon="4.30546">
        <ele>954.8</ele>
      </trkpt>
      <trkpt lat="45.05726" lon="4.30523">
        <ele>953.5</ele>
      </trkpt>
      <trkpt lat="45.05738" lon="4.30517">
        <ele>952.3</ele>
      </trkpt>
      <trkpt lat="45.0576" lon="4.30521">
        <ele>946.6</ele>
      </trkpt>
      <trkpt lat="45.05804" lon="4.30505">
        <ele>944.2</ele>
      </trkpt>
      <trkpt lat="45.05821" lon="4.30503">
        <ele>943.1</ele>
      </trkpt>
      <trkpt lat="45.05869" lon="4.30511">
        <ele>938.9</ele>
      </trkpt>
      <trkpt lat="45.05881" lon="4.30507">
        <ele>938.4</ele>
      </trkpt>
      <trkpt lat="45.05903" lon="4.30494">
        <ele>937</ele>
      </trkpt>
      <trkpt lat="45.0589" lon="4.30445">
        <ele>937.5</ele>
      </trkpt>
      <trkpt lat="45.05824" lon="4.30442">
        <ele>940.7</ele>
      </trkpt>
      <trkpt lat="45.05733" lon="4.30449">
        <ele>948.5</ele>
      </trkpt>
      <trkpt lat="45.05688" lon="4.30404">
        <ele>948.3</ele>
      </trkpt>
      <trkpt lat="45.05674" lon="4.30309">
        <ele>945.2</ele>
      </trkpt>
      <trkpt lat="45.05718" lon="4.30132">
        <ele>947.5</ele>
      </trkpt>
      <trkpt lat="45.05792" lon="4.29989">
        <ele>939.8</ele>
      </trkpt>
      <trkpt lat="45.05851" lon="4.29835">
        <ele>934.3</ele>
      </trkpt>
      <trkpt lat="45.05895" lon="4.29672">
        <ele>931</ele>
      </trkpt>
      <trkpt lat="45.05883" lon="4.29588">
        <ele>936.3</ele>
      </trkpt>
      <trkpt lat="45.05964" lon="4.29441">
        <ele>936.3</ele>
      </trkpt>
      <trkpt lat="45.05999" lon="4.29313">
        <ele>936.4</ele>
      </trkpt>
      <trkpt lat="45.05999" lon="4.29232">
        <ele>941.2</ele>
      </trkpt>
      <trkpt lat="45.0605" lon="4.29121">
        <ele>948.6</ele>
      </trkpt>
      <trkpt lat="45.06077" lon="4.28992">
        <ele>955.1</ele>
      </trkpt>
      <trkpt lat="45.06109" lon="4.28943">
        <ele>959.3</ele>
      </trkpt>
      <trkpt lat="45.06104" lon="4.28811">
        <ele>964.1</ele>
      </trkpt>
      <trkpt lat="45.06213" lon="4.28807">
        <ele>963.9</ele>
      </trkpt>
      <trkpt lat="45.06245" lon="4.28678">
        <ele>965.6</ele>
      </trkpt>
      <trkpt lat="45.06323" lon="4.28425">
        <ele>962.7</ele>
      </trkpt>
      <trkpt lat="45.06365" lon="4.28329">
        <ele>956.2</ele>
      </trkpt>
      <trkpt lat="45.06369" lon="4.28237">
        <ele>948.9</ele>
      </trkpt>
      <trkpt lat="45.06326" lon="4.28168">
        <ele>948.9</ele>
      </trkpt>
      <trkpt lat="45.06242" lon="4.28159">
        <ele>954.5</ele>
      </trkpt>
      <trkpt lat="45.06128" lon="4.28108">
        <ele>960.1</ele>
      </trkpt>
      <trkpt lat="45.06232" lon="4.27892">
        <ele>952.3</ele>
      </trkpt>
      <trkpt lat="45.06258" lon="4.27777">
        <ele>953.2</ele>
      </trkpt>
      <trkpt lat="45.06544" lon="4.27542">
        <ele>977.1</ele>
      </trkpt>
      <trkpt lat="45.0674" lon="4.27303">
        <ele>992.1</ele>
      </trkpt>
      <trkpt lat="45.0692" lon="4.27014">
        <ele>992.2</ele>
      </trkpt>
      <trkpt lat="45.07016" lon="4.2728">
        <ele>991</ele>
      </trkpt>
      <trkpt lat="45.071" lon="4.27325">
        <ele>976.4</ele>
      </trkpt>
      <trkpt lat="45.07104" lon="4.27444">
        <ele>977.5</ele>
      </trkpt>
      <trkpt lat="45.07156" lon="4.2758">
        <ele>960.9</ele>
      </trkpt>
      <trkpt lat="45.07192" lon="4.27591">
        <ele>948.9</ele>
      </trkpt>
      <trkpt lat="45.07216" lon="4.2754">
        <ele>952.9</ele>
      </trkpt>
      <trkpt lat="45.07216" lon="4.27455">
        <ele>957.2</ele>
      </trkpt>
      <trkpt lat="45.07236" lon="4.27472">
        <ele>955.8</ele>
      </trkpt>
      <trkpt lat="45.0728" lon="4.27557">
        <ele>953.3</ele>
      </trkpt>
      <trkpt lat="45.073" lon="4.2762">
        <ele>952.2</ele>
      </trkpt>
      <trkpt lat="45.07306" lon="4.27751">
        <ele>953.6</ele>
      </trkpt>
      <trkpt lat="45.07393" lon="4.27573">
        <ele>963.5</ele>
      </trkpt>
      <trkpt lat="45.07384" lon="4.27523">
        <ele>964.5</ele>
      </trkpt>
      <trkpt lat="45.07404" lon="4.2748">
        <ele>968.1</ele>
      </trkpt>
      <trkpt lat="45.07462" lon="4.274">
        <ele>973.7</ele>
      </trkpt>
      <trkpt lat="45.07527" lon="4.27348">
        <ele>974.7</ele>
      </trkpt>
      <trkpt lat="45.07591" lon="4.27338">
        <ele>975</ele>
      </trkpt>
      <trkpt lat="45.07679" lon="4.27304">
        <ele>980</ele>
      </trkpt>
      <trkpt lat="45.07714" lon="4.27303">
        <ele>979.7</ele>
      </trkpt>
      <trkpt lat="45.07668" lon="4.27301">
        <ele>980.4</ele>
      </trkpt>
      <trkpt lat="45.07655" lon="4.27277">
        <ele>981.8</ele>
      </trkpt>
      <trkpt lat="45.07671" lon="4.27208">
        <ele>991.5</ele>
      </trkpt>
      <trkpt lat="45.07708" lon="4.27133">
        <ele>997.2</ele>
      </trkpt>
      <trkpt lat="45.07754" lon="4.27065">
        <ele>1003.8</ele>
      </trkpt>
      <trkpt lat="45.07795" lon="4.27003">
        <ele>1007.8</ele>
      </trkpt>
      <trkpt lat="45.07832" lon="4.27016">
        <ele>1011.1</ele>
      </trkpt>
      <trkpt lat="45.07869" lon="4.27">
        <ele>1017.7</ele>
      </trkpt>
      <trkpt lat="45.07959" lon="4.26839">
        <ele>1024.9</ele>
      </trkpt>
      <trkpt lat="45.08087" lon="4.26656">
        <ele>1045.3</ele>
      </trkpt>
      <trkpt lat="45.08232" lon="4.26471">
        <ele>1042.7</ele>
      </trkpt>
      <trkpt lat="45.08264" lon="4.26639">
        <ele>1031.3</ele>
      </trkpt>
      <trkpt lat="45.08243" lon="4.26725">
        <ele>1031.8</ele>
      </trkpt>
      <trkpt lat="45.08241" lon="4.26806">
        <ele>1030.2</ele>
      </trkpt>
      <trkpt lat="45.08268" lon="4.2696">
        <ele>1027.9</ele>
      </trkpt>
      <trkpt lat="45.08282" lon="4.2709">
        <ele>1013.5</ele>
      </trkpt>
      <trkpt lat="45.08288" lon="4.27166">
        <ele>1008.1</ele>
      </trkpt>
      <trkpt lat="45.08276" lon="4.27203">
        <ele>1000.1</ele>
      </trkpt>
      <trkpt lat="45.08253" lon="4.27254">
        <ele>998.1</ele>
      </trkpt>
      <trkpt lat="45.08224" lon="4.27347">
        <ele>989.4</ele>
      </trkpt>
      <trkpt lat="45.08169" lon="4.27373">
        <ele>989.5</ele>
      </trkpt>
    </trkseg>
  </trk>
</gpx>